createdAt,value
2019-03-11T00:00:52.888Z,1.30
2019-03-11T00:03:20.944Z,1.40
2019-03-11T00:05:49.035Z,1.27
2019-03-11T00:08:17.136Z,1.23
2019-03-11T00:10:45.178Z,1.40
2019-03-11T00:13:13.344Z,1.30
2019-03-11T00:15:41.523Z,1.30
2019-03-11T00:18:09.697Z,1.53
2019-03-11T00:20:37.843Z,1.37
2019-03-11T00:23:05.948Z,1.50
2019-03-11T00:25:33.913Z,1.30
2019-03-11T00:28:01.954Z,1.40
2019-03-11T00:30:30.050Z,1.43
2019-03-11T00:32:58.494Z,1.40
2019-03-11T00:35:27.356Z,1.20
2019-03-11T00:37:55.492Z,1.40
2019-03-11T00:40:23.532Z,1.60
2019-03-11T00:42:51.576Z,1.43
2019-03-11T00:45:19.603Z,1.43
2019-03-11T00:47:47.675Z,1.27
2019-03-11T00:50:15.749Z,1.20
2019-03-11T00:52:43.904Z,1.40
2019-03-11T00:55:12.883Z,1.40
2019-03-11T00:57:40.930Z,1.50
2019-03-11T01:00:12.162Z,1.50
2019-03-11T01:02:40.282Z,1.40
2019-03-11T01:05:08.506Z,1.40
2019-03-11T01:07:36.542Z,1.37
2019-03-11T01:10:05.707Z,1.60
2019-03-11T01:12:33.814Z,1.50
2019-03-11T01:15:01.858Z,1.50
2019-03-11T01:17:29.815Z,1.60
2019-03-11T01:19:57.902Z,1.33
2019-03-11T01:22:25.909Z,1.50
2019-03-11T01:24:53.888Z,1.53
2019-03-11T01:27:21.832Z,1.50
2019-03-11T01:29:49.815Z,1.73
2019-03-11T01:32:17.822Z,1.50
2019-03-11T01:34:45.831Z,1.60
2019-03-11T01:37:15.909Z,1.57
2019-03-11T01:39:44.134Z,1.43
2019-03-11T01:42:12.103Z,1.40
2019-03-11T01:44:40.139Z,1.47
2019-03-11T01:47:08.220Z,1.40
2019-03-11T01:49:36.240Z,1.50
2019-03-11T01:52:04.343Z,1.30
2019-03-11T01:54:32.369Z,1.50
2019-03-11T01:57:00.408Z,1.30
2019-03-11T01:59:28.517Z,1.53
2019-03-11T02:01:56.595Z,1.50
2019-03-11T02:04:24.734Z,1.20
2019-03-11T02:06:52.746Z,1.50
2019-03-11T02:09:20.989Z,1.37
2019-03-11T02:11:48.993Z,1.43
2019-03-11T02:14:18.797Z,1.40
2019-03-11T02:16:46.920Z,1.30
2019-03-11T02:19:14.931Z,1.40
2019-03-11T02:21:42.864Z,1.30
2019-03-11T02:24:10.919Z,1.67
2019-03-11T02:26:38.900Z,1.50
2019-03-11T02:29:06.940Z,1.50
2019-03-11T02:31:34.933Z,1.60
2019-03-11T02:34:03.007Z,1.60
2019-03-11T02:36:30.992Z,1.60
2019-03-11T02:38:59.008Z,1.30
2019-03-11T02:41:27.127Z,1.50
2019-03-11T02:43:55.111Z,1.30
2019-03-11T02:46:23.172Z,1.43
2019-03-11T02:48:51.272Z,1.50
2019-03-11T02:51:19.673Z,1.53
2019-03-11T02:53:47.746Z,1.50
2019-03-11T02:56:15.900Z,1.60
2019-03-11T02:58:43.887Z,1.57
2019-03-11T03:01:45.723Z,1.67
2019-03-11T03:04:20.782Z,1.60
2019-03-11T03:06:48.833Z,1.57
2019-03-11T03:09:16.995Z,1.60
2019-03-11T03:11:45.051Z,1.60
2019-03-11T03:14:13.100Z,1.60
2019-03-11T03:16:41.158Z,1.40
2019-03-11T03:19:09.610Z,1.70
2019-03-11T03:21:37.765Z,1.70
2019-03-11T03:24:05.801Z,1.63
2019-03-11T03:26:33.805Z,1.67
2019-03-11T03:29:01.779Z,1.50
2019-03-11T03:31:30.025Z,1.50
2019-03-11T03:33:58.125Z,1.53
2019-03-11T03:36:26.263Z,1.70
2019-03-11T03:38:54.371Z,1.80
2019-03-11T03:41:22.499Z,1.73
2019-03-11T03:43:50.513Z,1.40
2019-03-11T03:46:19.636Z,1.80
2019-03-11T03:48:47.932Z,1.50
2019-03-11T03:51:15.991Z,1.70
2019-03-11T03:53:43.996Z,1.63
2019-03-11T03:56:12.037Z,1.73
2019-03-11T03:58:40.044Z,1.53
2019-03-11T04:01:08.140Z,1.60
2019-03-11T04:03:36.135Z,1.67
2019-03-11T04:06:04.063Z,1.43
2019-03-11T04:08:32.241Z,1.57
2019-03-11T04:11:00.245Z,1.60
2019-03-11T04:13:28.435Z,1.90
2019-03-11T04:15:56.388Z,1.70
2019-03-11T04:18:26.062Z,1.73
2019-03-11T04:20:54.111Z,1.63
2019-03-11T04:23:22.306Z,1.80
2019-03-11T04:25:50.288Z,1.87
2019-03-11T04:28:18.320Z,1.80
2019-03-11T04:30:46.316Z,1.50
2019-03-11T04:33:16.609Z,1.70
2019-03-11T04:35:44.681Z,1.70
2019-03-11T04:38:12.713Z,1.43
2019-03-11T04:40:40.785Z,1.70
2019-03-11T04:43:08.803Z,1.60
2019-03-11T04:45:36.824Z,1.63
2019-03-11T04:48:04.898Z,1.60
2019-03-11T04:50:33.025Z,1.60
2019-03-11T04:53:01.096Z,1.40
2019-03-11T04:55:29.608Z,1.70
2019-03-11T04:57:59.811Z,1.40
2019-03-11T05:00:28.472Z,2.00
2019-03-11T05:02:56.422Z,1.70
2019-03-11T05:05:26.331Z,1.80
2019-03-11T05:07:54.394Z,1.53
2019-03-11T05:10:22.431Z,1.70
2019-03-11T05:12:50.479Z,1.70
2019-03-11T05:15:18.502Z,1.47
2019-03-11T05:17:48.499Z,1.63
2019-03-11T05:20:16.280Z,1.63
2019-03-11T05:22:45.328Z,1.73
2019-03-11T05:25:16.363Z,1.80
2019-03-11T05:27:44.548Z,1.50
2019-03-11T05:30:13.595Z,1.60
2019-03-11T05:32:41.637Z,1.60
2019-03-11T05:35:09.655Z,1.60
2019-03-11T05:37:37.655Z,1.63
2019-03-11T05:40:20.108Z,1.80
2019-03-11T05:42:48.211Z,1.63
2019-03-11T05:45:19.299Z,1.80
2019-03-11T05:47:47.309Z,1.57
2019-03-11T05:50:15.375Z,1.50
2019-03-11T05:52:43.416Z,1.40
2019-03-11T05:55:12.424Z,1.80
2019-03-11T05:57:40.464Z,1.43
2019-03-11T06:00:10.530Z,1.37
2019-03-11T06:02:38.589Z,1.70
2019-03-11T06:05:06.719Z,1.50
2019-03-11T06:07:34.756Z,1.30
2019-03-11T06:10:02.879Z,1.40
2019-03-11T06:12:30.841Z,1.50
2019-03-11T06:14:58.776Z,1.70
2019-03-11T06:17:27.351Z,2.10
2019-03-11T06:20:07.784Z,1.77
2019-03-11T06:22:35.871Z,1.63
2019-03-11T06:25:03.946Z,1.63
2019-03-11T06:27:32.227Z,1.47
2019-03-11T06:30:00.495Z,1.33
2019-03-11T06:32:28.578Z,1.40
2019-03-11T06:34:56.653Z,1.57
2019-03-11T06:37:24.746Z,1.30
2019-03-11T06:39:52.752Z,1.37
2019-03-11T06:42:20.755Z,1.43
2019-03-11T06:44:48.668Z,1.83
2019-03-11T06:47:17.002Z,1.60
2019-03-11T06:49:45.195Z,1.53
2019-03-11T06:52:13.213Z,1.60
2019-03-11T06:54:41.357Z,1.53
2019-03-11T06:57:09.371Z,1.60
2019-03-11T06:59:37.376Z,1.60
2019-03-11T07:02:06.040Z,1.43
2019-03-11T07:04:33.995Z,1.60
2019-03-11T07:07:03.058Z,1.70
2019-03-11T07:09:31.140Z,1.80
2019-03-11T07:11:59.135Z,1.60
2019-03-11T07:14:27.277Z,1.50
2019-03-11T07:16:55.397Z,1.43
2019-03-11T07:19:23.398Z,1.47
2019-03-11T07:21:51.434Z,1.20
2019-03-11T07:24:19.434Z,1.63
2019-03-11T07:26:47.442Z,1.60
2019-03-11T07:29:15.443Z,1.70
2019-03-11T07:31:43.703Z,1.83
2019-03-11T07:34:13.472Z,1.50
2019-03-11T07:36:41.428Z,1.60
2019-03-11T07:39:09.456Z,1.63
2019-03-11T07:41:37.380Z,1.70
2019-03-11T07:44:05.295Z,1.67
2019-03-11T07:46:33.300Z,1.40
2019-03-11T07:49:01.235Z,1.77
2019-03-11T07:51:29.180Z,1.70
2019-03-11T07:53:57.209Z,1.50
2019-03-11T07:56:25.316Z,1.50
2019-03-11T07:58:53.350Z,1.70
2019-03-11T08:01:21.343Z,1.57
2019-03-11T08:03:49.361Z,1.70
2019-03-11T08:06:18.833Z,1.50
2019-03-11T08:08:47.034Z,1.40
2019-03-11T08:11:15.112Z,1.23
2019-03-11T08:13:43.781Z,1.40
2019-03-11T08:16:12.160Z,1.50
2019-03-11T08:18:40.195Z,1.30
2019-03-11T08:21:08.196Z,1.30
2019-03-11T08:23:36.330Z,1.50
2019-03-11T08:26:04.354Z,1.63
2019-03-11T08:28:32.359Z,1.40
2019-03-11T08:31:00.384Z,1.40
2019-03-11T08:33:28.323Z,1.70
2019-03-11T08:35:56.329Z,1.30
2019-03-11T08:38:24.429Z,1.40
2019-03-11T08:40:52.468Z,1.37
2019-03-11T08:43:20.615Z,1.20
2019-03-11T08:45:48.564Z,1.20
2019-03-11T08:48:16.576Z,1.27
2019-03-11T08:50:44.622Z,1.30
2019-03-11T08:53:12.695Z,1.30
2019-03-11T08:55:40.594Z,1.23
2019-03-11T08:58:08.732Z,1.23
2019-03-11T09:00:36.800Z,1.30
2019-03-11T09:03:04.759Z,1.30
2019-03-11T09:05:32.811Z,1.23
2019-03-11T09:08:00.767Z,2.20
2019-03-11T09:10:28.734Z,1.30
2019-03-11T09:12:56.812Z,1.40
2019-03-11T09:15:24.760Z,1.33
2019-03-11T09:17:52.778Z,1.40
2019-03-11T09:20:20.981Z,1.40
2019-03-11T09:22:48.982Z,1.20
2019-03-11T09:25:16.956Z,1.30
2019-03-11T09:27:45.053Z,1.07
2019-03-11T09:30:14.383Z,1.20
2019-03-11T09:32:42.352Z,1.37
2019-03-11T09:35:10.449Z,1.17
2019-03-11T09:37:38.434Z,1.40
2019-03-11T09:40:07.039Z,1.30
2019-03-11T09:42:35.022Z,1.50
2019-03-11T09:45:03.068Z,1.40
2019-03-11T09:47:31.272Z,1.30
2019-03-11T09:49:59.435Z,1.27
2019-03-11T09:52:28.220Z,1.37
2019-03-11T09:54:56.311Z,1.40
2019-03-11T09:57:24.356Z,1.40
2019-03-11T09:59:52.359Z,1.67
2019-03-11T10:02:20.580Z,1.40
2019-03-11T10:04:48.582Z,2.87
2019-03-11T10:07:16.826Z,1.30
2019-03-11T10:09:44.808Z,1.60
2019-03-11T10:12:12.726Z,1.23
2019-03-11T10:14:40.871Z,1.23
2019-03-11T10:17:08.976Z,1.20
2019-03-11T10:19:36.911Z,1.80
2019-03-11T10:22:04.922Z,1.40
2019-03-11T10:24:33.330Z,1.40
2019-03-11T10:27:01.348Z,1.20
2019-03-11T10:29:29.330Z,1.33
2019-03-11T10:31:57.430Z,1.50
2019-03-11T10:34:25.383Z,1.83
2019-03-11T10:36:53.407Z,1.70
2019-03-11T10:39:21.427Z,1.60
2019-03-11T10:41:49.380Z,1.40
2019-03-11T10:44:17.340Z,1.40
2019-03-11T10:46:45.429Z,1.40
2019-03-11T10:49:13.420Z,1.23
2019-03-11T10:51:41.352Z,1.30
2019-03-11T10:54:09.501Z,1.27
2019-03-11T10:56:37.520Z,1.57
2019-03-11T10:59:05.541Z,1.30
2019-03-11T11:01:33.819Z,1.23
2019-03-11T11:04:02.083Z,1.50
2019-03-11T11:06:30.150Z,1.13
2019-03-11T11:08:58.179Z,1.50
2019-03-11T11:11:26.228Z,1.37
2019-03-11T11:13:54.404Z,1.27
2019-03-11T11:16:22.345Z,1.20
2019-03-11T11:18:50.343Z,1.10
2019-03-11T11:21:18.312Z,1.20
2019-03-11T11:23:46.212Z,1.30
2019-03-11T11:26:14.358Z,1.13
2019-03-11T11:28:42.391Z,1.40
2019-03-11T11:31:10.357Z,1.50
2019-03-11T11:33:38.467Z,1.30
2019-03-11T11:36:06.436Z,1.10
2019-03-11T11:38:34.780Z,1.27
2019-03-11T11:41:02.828Z,1.30
2019-03-11T11:43:30.981Z,1.50
2019-03-11T11:45:59.079Z,1.50
2019-03-11T11:48:27.031Z,1.20
2019-03-11T11:50:54.992Z,1.30
2019-03-11T11:53:25.150Z,1.50
2019-03-11T11:55:57.556Z,1.40
2019-03-11T11:58:22.754Z,1.40
2019-03-11T12:00:50.956Z,1.63
2019-03-11T12:03:18.872Z,1.50
2019-03-11T12:05:46.934Z,1.40
2019-03-11T12:08:14.935Z,1.20
2019-03-11T12:10:42.862Z,1.40
2019-03-11T12:13:10.887Z,1.60
2019-03-11T12:15:39.047Z,1.30
2019-03-11T12:18:07.047Z,1.30
2019-03-11T12:20:35.108Z,1.20
2019-03-11T12:23:03.041Z,1.40
2019-03-11T12:25:31.070Z,1.50
2019-03-11T12:27:59.205Z,1.20
2019-03-11T12:30:27.755Z,1.10
2019-03-11T12:32:55.875Z,1.20
2019-03-11T12:35:24.195Z,1.40
2019-03-11T12:37:52.344Z,1.47
2019-03-11T12:40:20.395Z,1.30
2019-03-11T12:42:48.371Z,1.37
2019-03-11T12:45:16.442Z,1.40
2019-03-11T12:47:44.485Z,1.40
2019-03-11T12:50:14.839Z,1.10
2019-03-11T12:52:43.055Z,1.40
2019-03-11T12:55:11.116Z,1.20
2019-03-11T12:57:39.130Z,1.40
2019-03-11T13:00:07.267Z,1.40
2019-03-11T13:02:35.523Z,1.30
2019-03-11T13:05:03.600Z,1.33
2019-03-11T13:07:31.568Z,1.20
2019-03-11T13:09:59.611Z,1.40
2019-03-11T13:12:27.659Z,1.27
2019-03-11T13:14:55.679Z,1.30
2019-03-11T13:17:23.691Z,2.00
2019-03-11T13:19:52.290Z,1.07
2019-03-11T13:22:20.290Z,1.20
2019-03-11T13:24:48.268Z,1.30
2019-03-11T13:27:16.292Z,1.30
2019-03-11T13:29:44.275Z,1.30
2019-03-11T13:32:12.220Z,1.17
2019-03-11T13:34:40.176Z,1.20
2019-03-11T13:37:08.178Z,1.20
2019-03-11T13:39:36.131Z,1.33
2019-03-11T13:42:04.081Z,1.33
2019-03-11T13:44:32.161Z,1.40
2019-03-11T13:47:00.239Z,1.30
2019-03-11T13:49:28.217Z,1.23
2019-03-11T13:51:56.167Z,1.33
2019-03-11T13:54:24.214Z,1.40
2019-03-11T13:56:52.237Z,1.30
2019-03-11T13:59:20.258Z,1.20
2019-03-11T14:01:48.405Z,1.10
2019-03-11T14:04:16.395Z,1.20
2019-03-11T14:06:44.430Z,1.10
2019-03-11T14:09:12.705Z,1.10
2019-03-11T14:11:40.768Z,1.20
2019-03-11T14:14:08.741Z,1.10
2019-03-11T14:16:36.940Z,1.20
2019-03-11T14:19:04.903Z,1.30
2019-03-11T14:21:32.908Z,1.03
2019-03-11T14:24:01.013Z,1.03
2019-03-11T14:26:29.056Z,1.20
2019-03-11T14:28:57.066Z,1.10
2019-03-11T14:31:25.112Z,1.20
2019-03-11T14:33:53.155Z,1.10
2019-03-11T14:36:21.103Z,1.20
2019-03-11T14:38:49.052Z,1.00
2019-03-11T14:41:17.083Z,0.93
2019-03-11T14:43:45.093Z,1.47
2019-03-11T14:46:13.095Z,1.27
2019-03-11T14:48:41.122Z,1.03
2019-03-11T14:51:09.430Z,1.30
2019-03-11T14:53:37.435Z,1.10
2019-03-11T14:56:05.547Z,1.50
2019-03-11T14:58:33.784Z,1.03
2019-03-11T15:01:01.786Z,1.20
2019-03-11T15:03:29.819Z,1.30
2019-03-11T15:05:57.873Z,1.30
2019-03-11T15:08:25.915Z,1.23
2019-03-11T15:10:53.971Z,1.03
2019-03-11T15:13:22.026Z,1.30
2019-03-11T15:15:50.017Z,1.00
2019-03-11T15:18:18.080Z,1.30
2019-03-11T15:20:46.155Z,1.30
2019-03-11T15:23:20.450Z,1.40
2019-03-11T15:25:43.849Z,1.20
2019-03-11T15:28:11.864Z,1.20
2019-03-11T15:30:39.816Z,1.20
2019-03-11T15:33:07.807Z,1.20
2019-03-11T15:35:35.788Z,1.30
2019-03-11T15:38:03.775Z,1.07
2019-03-11T15:40:31.803Z,1.20
2019-03-11T15:42:59.844Z,1.00
2019-03-11T15:45:38.001Z,1.27
2019-03-11T15:47:57.811Z,1.10
2019-03-11T15:50:26.155Z,1.13
2019-03-11T15:52:54.149Z,1.10
2019-03-11T15:55:22.156Z,1.03
2019-03-11T15:57:50.266Z,1.30
2019-03-11T16:00:18.737Z,1.00
2019-03-11T16:02:46.876Z,1.13
2019-03-11T16:05:15.432Z,1.20
2019-03-11T16:07:43.766Z,1.33
2019-03-11T16:10:16.755Z,1.23
2019-03-11T16:12:41.972Z,1.30
2019-03-11T16:15:10.170Z,1.20
2019-03-11T16:17:38.207Z,1.20
2019-03-11T16:20:07.063Z,1.20
2019-03-11T16:22:35.072Z,1.10
2019-03-11T16:25:03.104Z,1.27
2019-03-11T16:27:31.205Z,1.30
2019-03-11T16:29:59.292Z,1.37
2019-03-11T16:32:27.354Z,1.10
2019-03-11T16:34:55.507Z,1.00
2019-03-11T16:37:23.463Z,1.20
2019-03-11T16:39:51.577Z,1.30
2019-03-11T16:42:19.636Z,1.40
2019-03-11T16:44:47.680Z,1.37
2019-03-11T16:47:15.715Z,1.50
2019-03-11T16:49:43.995Z,1.70
2019-03-11T16:52:11.992Z,1.93
2019-03-11T16:54:40.265Z,1.50
2019-03-11T16:57:08.236Z,1.30
2019-03-11T16:59:36.236Z,1.40
2019-03-11T17:02:04.316Z,1.20
2019-03-11T17:04:32.729Z,1.30
2019-03-11T17:07:00.696Z,1.30
2019-03-11T17:09:28.660Z,1.37
2019-03-11T17:11:56.627Z,1.80
2019-03-11T17:14:24.739Z,2.50
2019-03-11T17:16:52.733Z,1.50
2019-03-11T17:19:20.744Z,1.40
2019-03-11T17:21:48.851Z,1.60
2019-03-11T17:24:16.959Z,1.50
2019-03-11T17:26:44.984Z,1.50
2019-03-11T17:29:13.100Z,1.57
2019-03-11T17:31:41.169Z,1.70
2019-03-11T17:34:09.203Z,1.80
2019-03-11T17:36:37.530Z,1.70
2019-03-11T17:39:06.543Z,1.70
2019-03-11T17:41:34.639Z,1.80
2019-03-11T17:44:03.143Z,1.60
2019-03-11T17:46:31.184Z,1.90
2019-03-11T17:48:59.305Z,2.00
2019-03-11T17:51:27.287Z,1.93
2019-03-11T17:53:55.409Z,1.93
2019-03-11T17:56:23.459Z,1.67
2019-03-11T17:58:53.261Z,2.13
2019-03-11T18:01:21.285Z,2.80
2019-03-11T18:03:51.113Z,4.00
2019-03-11T18:06:19.143Z,3.70
2019-03-11T18:08:47.389Z,4.33
2019-03-11T18:11:15.428Z,2.10
2019-03-11T18:13:43.500Z,2.10
2019-03-11T18:16:11.587Z,4.60
2019-03-11T18:18:39.646Z,2.13
2019-03-11T18:21:07.676Z,2.00
2019-03-11T18:23:35.674Z,1.67
2019-03-11T18:26:03.861Z,1.97
2019-03-11T18:28:31.998Z,2.30
2019-03-11T18:31:00.522Z,4.73
2019-03-11T18:33:28.631Z,2.27
2019-03-11T18:35:56.685Z,2.77
2019-03-11T18:38:24.811Z,1.87
2019-03-11T18:40:54.359Z,2.30
2019-03-11T18:43:22.951Z,2.50
2019-03-11T18:45:51.276Z,1.97
2019-03-11T18:48:19.508Z,1.93
2019-03-11T18:50:47.739Z,1.80
2019-03-11T18:53:15.846Z,1.70
2019-03-11T18:55:43.848Z,1.97
2019-03-11T18:58:11.860Z,1.80
2019-03-11T19:00:46.523Z,1.80
2019-03-11T19:03:14.773Z,2.03
2019-03-11T19:05:42.864Z,1.63
2019-03-11T19:08:10.948Z,1.60
2019-03-11T19:10:41.855Z,2.10
2019-03-11T19:13:10.037Z,2.20
2019-03-11T19:15:38.279Z,1.80
2019-03-11T19:18:06.428Z,2.00
2019-03-11T19:20:34.432Z,1.80
2019-03-11T19:23:02.532Z,1.60
2019-03-11T19:25:30.826Z,2.53
2019-03-11T19:27:59.143Z,1.80
2019-03-11T19:30:27.153Z,2.03
2019-03-11T19:32:55.244Z,2.00
2019-03-11T19:35:23.315Z,1.80
2019-03-11T19:37:51.500Z,1.97
2019-03-11T19:40:19.627Z,1.77
2019-03-11T19:42:47.731Z,1.70
2019-03-11T19:45:16.067Z,1.83
2019-03-11T19:47:44.117Z,1.80
2019-03-11T19:50:12.339Z,1.60
2019-03-11T19:52:40.723Z,2.20
2019-03-11T19:55:13.061Z,1.90
2019-03-11T19:57:44.117Z,1.77
2019-03-11T20:00:13.514Z,1.90
2019-03-11T20:02:44.820Z,1.70
2019-03-11T20:05:13.310Z,1.87
2019-03-11T20:07:41.304Z,1.70
2019-03-11T20:10:10.246Z,1.73
2019-03-11T20:12:38.393Z,1.83
2019-03-11T20:15:06.509Z,1.77
2019-03-11T20:17:34.733Z,2.50
2019-03-11T20:20:03.101Z,2.17
2019-03-11T20:22:34.157Z,2.00
2019-03-11T20:25:02.334Z,1.57
2019-03-11T20:27:30.360Z,1.83
2019-03-11T20:29:58.395Z,2.10
2019-03-11T20:32:26.497Z,2.03
2019-03-11T20:34:54.698Z,2.40
2019-03-11T20:37:22.773Z,2.03
2019-03-11T20:39:50.923Z,2.00
2019-03-11T20:42:18.955Z,2.37
2019-03-11T20:44:46.987Z,1.93
2019-03-11T20:47:15.359Z,1.30
2019-03-11T20:49:43.435Z,2.93
2019-03-11T20:52:11.576Z,1.60
2019-03-11T20:54:39.525Z,1.40
2019-03-11T20:57:07.673Z,2.40
2019-03-11T20:59:35.761Z,1.83
2019-03-11T21:02:03.902Z,2.03
2019-03-11T21:04:32.084Z,2.53
2019-03-11T21:07:00.059Z,2.00
2019-03-11T21:09:28.102Z,1.47
2019-03-11T21:11:56.234Z,1.60
2019-03-11T21:14:24.254Z,1.57
2019-03-11T21:16:52.334Z,1.40
2019-03-11T21:19:20.472Z,1.70
2019-03-11T21:21:48.731Z,1.50
2019-03-11T21:24:16.812Z,1.50
2019-03-11T21:26:45.063Z,1.43
2019-03-11T21:29:13.213Z,1.43
2019-03-11T21:31:41.276Z,1.50
2019-03-11T21:34:09.991Z,1.50
2019-03-11T21:36:38.455Z,1.40
2019-03-11T21:39:06.630Z,1.40
2019-03-11T21:41:35.249Z,1.57
2019-03-11T21:44:03.422Z,1.70
2019-03-11T21:46:31.441Z,1.30
2019-03-11T21:48:59.567Z,1.40
2019-03-11T21:51:27.675Z,2.10
2019-03-11T21:53:57.283Z,1.53
2019-03-11T21:56:25.303Z,1.30
2019-03-11T21:58:53.408Z,1.30
2019-03-11T22:01:21.449Z,1.40
2019-03-11T22:03:49.619Z,1.27
2019-03-11T22:06:17.663Z,1.40
2019-03-11T22:08:45.907Z,1.93
2019-03-11T22:11:13.990Z,2.17
2019-03-11T22:13:42.051Z,1.37
2019-03-11T22:16:10.087Z,1.40
2019-03-11T22:18:38.150Z,1.20
2019-03-11T22:21:06.359Z,1.90
2019-03-11T22:23:34.425Z,1.23
2019-03-11T22:26:02.504Z,1.43
2019-03-11T22:28:30.603Z,1.60
2019-03-11T22:30:58.645Z,1.60
2019-03-11T22:33:26.679Z,1.37
2019-03-11T22:35:54.620Z,1.50
2019-03-11T22:38:22.616Z,1.30
2019-03-11T22:40:50.649Z,1.33
2019-03-11T22:43:18.967Z,1.30
2019-03-11T22:45:46.877Z,1.20
2019-03-11T22:48:14.795Z,1.40
2019-03-11T22:50:43.013Z,1.30
2019-03-11T22:53:11.302Z,1.43
2019-03-11T22:55:39.507Z,1.30
2019-03-11T22:58:07.524Z,1.30
2019-03-11T23:00:58.162Z,1.23
2019-03-11T23:03:26.436Z,1.30
2019-03-11T23:05:58.265Z,1.20
2019-03-11T23:08:24.797Z,1.10
2019-03-11T23:10:53.043Z,1.40
2019-03-11T23:13:21.263Z,1.10
2019-03-11T23:15:49.642Z,1.30
2019-03-11T23:18:17.668Z,1.30
2019-03-11T23:20:46.148Z,1.10
2019-03-11T23:23:14.192Z,1.17
2019-03-11T23:25:42.250Z,1.40
2019-03-11T23:28:10.356Z,1.20
2019-03-11T23:30:38.414Z,1.20
2019-03-11T23:33:06.439Z,1.20
2019-03-11T23:35:34.536Z,1.30
2019-03-11T23:38:02.519Z,1.13
2019-03-11T23:40:30.582Z,1.20
2019-03-11T23:42:58.780Z,1.20
2019-03-11T23:45:26.891Z,1.30
2019-03-11T23:47:54.927Z,1.30
2019-03-11T23:50:22.942Z,1.07
2019-03-11T23:52:51.002Z,1.30
2019-03-11T23:55:19.008Z,1.20
2019-03-11T23:57:46.950Z,1.10
